Time;durP1;ratioP1;P1;durP2;ratioP2;P2;SDS_P1;SDS_P2;PMS_P1;PMS_P2;Temp;Humidity;BMP_temperature;BMP_pressure;BME280_temperature;BME280_humidity;BME280_pressure;Samples;Min_cycle;Max_cycle;Signal;HPM_P1;HPM_P2
2022/08/05 00:00:28;;;;;;;;;3.25;3.25;;;;;23.20;58.81;101301.25;2384447;28;47070;-89
2022/08/05 00:01:38;;;;;;;;;5.25;4.00;;;;;23.24;57.94;101296.47;2387579;28;45190;-90
2022/08/05 00:02:49;;;;;;;;;4.00;4.00;;;;;23.31;58.20;101311.13;2384462;28;46931;-93
2022/08/05 00:03:59;;;;;;;;;2.25;2.25;;;;;23.36;58.16;101305.41;2387607;28;45180;-95
2022/08/05 00:05:10;;;;;;;;;5.50;4.00;;;;;23.45;58.20;101295.78;2382362;28;46286;-87
2022/08/05 00:06:20;;;;;;;;;5.50;3.25;;;;;23.54;58.50;101291.53;2378004;28;45226;-88
2022/08/05 00:07:30;;;;;;;;;3.75;3.75;;;;;23.55;58.37;101291.41;2380019;28;47302;-87
2022/08/05 00:08:41;;;;;;;;;3.25;3.25;;;;;23.56;57.86;101317.25;2387107;28;45291;-90
2022/08/05 00:09:51;;;;;;;;;3.75;2.50;;;;;23.53;57.61;101360.44;2377552;28;47297;-90
2022/08/05 00:11:05;;;;;;;;;6.50;3.50;;;;;23.55;58.22;101373.72;2377838;28;45377;-88
2022/08/05 00:12:15;;;;;;;;;3.50;3.50;;;;;23.54;57.55;101396.16;2388594;28;48159;-89
2022/08/05 00:13:26;;;;;;;;;2.75;2.75;;;;;23.51;58.49;101429.44;2389434;28;45244;-88
2022/08/05 00:14:36;;;;;;;;;5.75;2.75;;;;;23.51;57.16;101448.19;2384185;28;46289;-88
2022/08/05 00:15:47;;;;;;;;;3.25;3.00;;;;;23.43;56.90;101445.25;2386866;28;44617;-88
2022/08/05 00:16:58;;;;;;;;;6.00;2.50;;;;;23.37;56.59;101478.75;2394058;28;45229;-86
2022/08/05 00:18:08;;;;;;;;;5.75;3.25;;;;;23.27;57.04;101494.69;2394608;28;44633;-89
2022/08/05 00:19:20;;;;;;;;;4.00;3.00;;;;;23.14;57.96;101494.75;2384373;28;48024;-89
2022/08/05 00:20:30;;;;;;;;;3.50;3.00;;;;;23.04;57.87;101491.91;2384099;28;45303;-88
2022/08/05 00:21:40;;;;;;;;;3.00;3.00;;;;;22.92;58.11;101464.19;2384862;28;46203;-88
2022/08/05 00:22:50;;;;;;;;;3.00;3.00;;;;;22.81;57.82;101432.84;2390367;28;44734;-88
2022/08/05 00:24:01;;;;;;;;;3.00;3.00;;;;;22.69;57.68;101418.56;2393254;28;45343;-88
2022/08/05 00:25:11;;;;;;;;;6.50;3.25;;;;;22.63;57.58;101440.38;2393265;28;45266;-90
2022/08/05 00:26:22;;;;;;;;;7.00;3.00;;;;;22.55;58.05;101459.69;2383978;28;47284;-88
2022/08/05 00:27:32;;;;;;;;;4.00;3.00;;;;;22.53;58.61;101483.06;2384526;28;45384;-91
2022/08/05 00:28:43;;;;;;;;;3.75;3.25;;;;;22.47;59.71;101479.84;2383982;28;47792;-90
2022/08/05 00:29:53;;;;;;;;;4.75;2.75;;;;;22.46;59.34;101480.84;2384497;28;44787;-90
2022/08/05 00:31:05;;;;;;;;;3.00;2.00;;;;;22.45;59.44;101486.28;2384918;28;45469;-90
2022/08/05 00:32:15;;;;;;;;;3.25;3.25;;;;;22.43;60.21;101482.88;2385883;28;45315;-90
2022/08/05 00:33:25;;;;;;;;;5.25;3.50;;;;;22.41;59.65;101476.78;2380236;28;47156;-87
2022/08/05 00:34:36;;;;;;;;;3.25;3.25;;;;;22.38;59.73;101448.41;2377802;28;44607;-91
2022/08/05 00:35:46;;;;;;;;;2.75;2.75;;;;;22.36;59.73;101412.84;2377701;28;47208;-94
2022/08/05 00:36:56;;;;;;;;;4.00;3.00;;;;;22.34;59.39;101394.22;2377485;28;45225;-94
2022/08/05 00:38:07;;;;;;;;;3.25;3.25;;;;;22.39;60.51;101419.81;2380734;28;48198;-94
2022/08/05 00:39:17;;;;;;;;;3.50;3.50;;;;;22.41;60.09;101458.03;2369429;28;44590;-92
2022/08/05 00:40:28;;;;;;;;;8.00;3.50;;;;;22.43;60.69;101493.59;2386976;28;47286;-94
2022/08/05 00:41:38;;;;;;;;;7.00;5.00;;;;;22.42;60.49;101527.53;2387621;28;45234;-91
2022/08/05 00:42:48;;;;;;;;;5.50;3.00;;;;;22.42;60.44;101532.91;2386988;28;46352;-92
2022/08/05 00:43:59;;;;;;;;;5.25;4.00;;;;;22.40;60.79;101540.19;2388466;28;45318;-91
2022/08/05 00:45:10;;;;;;;;;4.00;3.25;;;;;22.37;60.01;101540.44;2387160;28;46450;-89
2022/08/05 00:46:21;;;;;;;;;3.75;3.00;;;;;22.33;60.52;101526.38;2384218;28;44717;-88
2022/08/05 00:47:31;;;;;;;;;4.25;4.25;;;;;22.31;60.03;101489.97;2384350;28;45469;-87
2022/08/05 00:48:41;;;;;;;;;4.25;3.75;;;;;22.28;61.05;101466.09;2384253;28;44728;-87
2022/08/05 00:49:52;;;;;;;;;6.75;4.00;;;;;22.26;60.67;101464.38;2384351;28;45462;-87
2022/08/05 00:51:02;;;;;;;;;4.00;4.00;;;;;22.22;61.11;101451.34;2389740;28;45479;-88
2022/08/05 00:52:12;;;;;;;;;5.25;4.00;;;;;22.20;61.10;101432.69;2393374;28;46279;-87
2022/08/05 00:53:23;;;;;;;;;5.75;3.25;;;;;22.17;61.44;101432.06;2376171;28;44791;-88
2022/08/05 00:54:33;;;;;;;;;7.00;6.00;;;;;22.12;60.85;101440.44;2377641;28;45566;-88
2022/08/05 00:55:44;;;;;;;;;4.25;4.25;;;;;22.10;60.41;101445.88;2384727;28;45432;-89
2022/08/05 00:56:54;;;;;;;;;6.00;3.75;;;;;22.07;60.16;101438.09;2386993;28;46449;-89
2022/08/05 00:58:04;;;;;;;;;3.75;3.25;;;;;22.07;60.40;101427.38;2384410;28;44732;-87
2022/08/05 00:59:15;;;;;;;;;8.25;6.00;;;;;22.06;60.14;101439.03;2386693;28;46084;-88
2022/08/05 01:00:27;;;;;;;;;3.50;3.00;;;;;22.06;60.85;101472.97;2384177;28;44750;-89
2022/08/05 01:01:39;;;;;;;;;3.00;3.00;;;;;22.08;60.99;101505.84;2377990;28;46553;-90
2022/08/05 01:02:49;;;;;;;;;6.00;4.50;;;;;22.07;60.73;101518.38;2380890;28;45468;-89
2022/08/05 01:03:59;;;;;;;;;6.00;4.75;;;;;22.05;61.13;101487.34;2387038;28;48098;-92
2022/08/05 01:05:11;;;;;;;;;6.25;4.00;;;;;22.02;61.18;101458.97;2394096;28;45227;-93
2022/08/05 01:06:21;;;;;;;;;5.00;3.00;;;;;21.96;61.02;101443.34;2378424;28;47609;-93
2022/08/05 01:07:32;;;;;;;;;4.25;4.25;;;;;21.91;61.31;101431.13;2380291;28;45239;-93
2022/08/05 01:08:42;;;;;;;;;4.75;2.50;;;;;21.88;61.42;101415.28;2384114;28;47615;-91
2022/08/05 01:09:53;;;;;;;;;8.25;4.00;;;;;21.88;61.25;101417.09;2374866;28;45415;-92
2022/08/05 01:11:11;;;;;;;;;1.75;1.75;;;;;21.85;61.85;101428.88;2379681;28;45477;-92
2022/08/05 01:12:23;;;;;;;;;3.00;3.00;;;;;21.81;61.63;101417.53;2387550;28;45435;-94
2022/08/05 01:13:45;;;;;;;;;5.75;3.50;;;;;21.80;61.64;101414.97;2388852;28;48114;-86
2022/08/05 01:15:04;;;;;;;;;4.00;4.00;;;;;21.83;61.13;101432.63;2378205;28;45514;-85
2022/08/05 01:16:29;;;;;;;;;3.25;3.25;;;;;21.83;61.75;101451.34;2387731;28;47119;-86
2022/08/05 01:17:45;;;;;;;;;4.00;2.50;;;;;21.79;61.85;101488.16;2393276;28;45310;-83
2022/08/05 01:19:05;;;;;;;;;5.00;5.00;;;;;21.76;62.06;101485.69;2391245;28;46402;-82
2022/08/05 01:20:39;;;;;;;;;3.50;3.50;;;;;21.76;62.35;101456.25;2393077;28;44814;-83
2022/08/05 01:22:28;;;;;;;;;5.00;3.50;;;;;21.71;61.82;101445.88;2376314;28;48194;-86
2022/08/05 01:24:04;;;;;;;;;4.25;3.00;;;;;21.63;60.84;101466.97;2385615;28;45171;-92
2022/08/05 01:25:40;;;;;;;;;3.25;3.00;;;;;21.58;62.76;101478.81;2391756;28;45421;-89
2022/08/05 01:27:03;;;;;;;;;6.25;3.75;;;;;21.53;62.34;101497.00;2383773;28;45407;-90
2022/08/05 01:28:31;;;;;;;;;5.50;3.25;;;;;21.50;62.28;101488.34;2387535;28;47087;-90
2022/08/05 01:29:47;;;;;;;;;3.00;3.00;;;;;21.42;61.53;101454.09;2393277;28;45433;-90
2022/08/05 01:31:14;;;;;;;;;3.75;3.75;;;;;21.36;62.36;101434.84;2391153;28;45386;-90
2022/08/05 01:32:30;;;;;;;;;3.00;3.00;;;;;21.31;62.74;101404.88;2374629;28;45236;-88
2022/08/05 01:34:03;;;;;;;;;5.00;3.25;;;;;21.28;62.69;101348.13;2381843;28;45460;-88
2022/08/05 01:35:17;;;;;;;;;4.25;4.25;;;;;21.23;62.34;101353.78;2394191;28;44690;-95
2022/08/05 01:36:32;;;;;;;;;4.75;2.75;;;;;21.18;62.08;101356.78;2383572;28;47419;-94
2022/08/05 01:37:48;;;;;;;;;4.00;3.25;;;;;21.22;63.37;101373.44;2377445;28;45316;-94
2022/08/05 01:39:00;;;;;;;;;3.75;3.75;;;;;21.21;62.43;101393.97;2377846;28;48029;-94
2022/08/05 01:40:14;;;;;;;;;4.75;3.75;;;;;21.22;62.87;101354.72;2369610;28;45315;-93
2022/08/05 01:41:28;;;;;;;;;3.75;3.25;;;;;21.23;62.55;101354.66;2377898;28;47255;-94
2022/08/05 01:42:41;;;;;;;;;3.75;2.25;;;;;21.25;62.99;101403.50;2376914;28;44737;-94
2022/08/05 01:43:53;;;;;;;;;4.50;4.50;;;;;21.30;62.41;101405.88;2371269;28;48289;-93
2022/08/05 01:45:06;;;;;;;;;4.75;4.25;;;;;21.33;63.18;101397.63;2387036;28;45239;-94
2022/08/05 01:46:18;;;;;;;;;3.25;3.00;;;;;21.34;62.01;101402.00;2384089;28;47064;-94
2022/08/05 01:47:31;;;;;;;;;5.75;2.75;;;;;21.33;61.70;101411.00;2379309;28;44584;-95
2022/08/05 01:48:43;;;;;;;;;6.50;4.00;;;;;21.32;61.84;101419.97;2393532;28;47185;-94
2022/08/05 01:49:57;;;;;;;;;4.25;4.00;;;;;21.28;61.81;101433.66;2380911;28;45359;-95
2022/08/05 01:51:08;;;;;;;;;5.00;3.75;;;;;21.26;61.70;101449.78;2373819;28;47664;-88
2022/08/05 01:52:22;;;;;;;;;2.75;2.75;;;;;21.26;62.05;101452.44;2383830;28;44624;-88
2022/08/05 01:53:34;;;;;;;;;5.00;3.75;;;;;21.25;61.86;101440.06;2384146;28;45318;-88
2022/08/05 01:54:48;;;;;;;;;2.50;2.50;;;;;21.21;62.09;101436.72;2383483;28;45478;-88
2022/08/05 01:56:01;;;;;;;;;4.00;3.25;;;;;21.20;61.86;101421.69;2377253;28;46131;-88
2022/08/05 01:57:16;;;;;;;;;3.00;3.00;;;;;21.18;62.47;101418.25;2384237;28;44731;-88
2022/08/05 01:58:29;;;;;;;;;7.50;4.25;;;;;21.21;61.98;101420.69;2374381;28;47323;-88
2022/08/05 01:59:41;;;;;;;;;4.00;4.00;;;;;21.19;62.28;101416.41;2383587;28;45473;-88
2022/08/05 02:00:55;;;;;;;;;5.50;4.00;;;;;21.19;61.59;101416.41;2387768;28;45450;-88
2022/08/05 02:02:07;;;;;;;;;2.50;2.50;;;;;21.22;62.61;101432.25;2384801;28;45277;-88
2022/08/05 02:03:35;;;;;;;;;3.25;3.25;;;;;21.21;62.65;101442.06;2383378;28;47315;-89
2022/08/05 02:04:47;;;;;;;;;5.50;4.00;;;;;21.27;63.77;101450.66;2379126;28;45264;-88
2022/08/05 02:05:59;;;;;;;;;5.00;5.00;;;;;21.27;63.50;101446.16;2377106;28;47370;-88
2022/08/05 02:07:09;;;;;;;;;4.25;4.00;;;;;21.29;63.63;101432.69;2386567;28;45264;-88
2022/08/05 02:08:20;;;;;;;;;5.25;4.75;;;;;21.33;63.93;101432.41;2384647;28;46454;-87
2022/08/05 02:09:31;;;;;;;;;3.50;3.00;;;;;21.34;63.45;101438.56;2384177;28;45216;-87
2022/08/05 02:10:52;;;;;;;;;6.50;3.75;;;;;21.31;62.46;101436.97;2383925;28;46204;-87
2022/08/05 02:12:10;;;;;;;;;3.75;3.00;;;;;21.27;62.36;101440.81;2384603;28;45299;-87
2022/08/05 02:13:27;;;;;;;;;2.00;2.00;;;;;21.24;63.10;101446.38;2374324;28;47403;-88
2022/08/05 02:14:43;;;;;;;;;5.50;3.00;;;;;21.22;62.66;101453.63;2379588;28;45247;-87
2022/08/05 02:16:01;;;;;;;;;3.75;3.75;;;;;21.23;63.00;101461.56;2389458;28;47069;-87
2022/08/05 02:17:49;;;;;;;;;3.75;3.00;;;;;21.27;62.33;101453.31;2378030;28;45291;-86
2022/08/05 02:19:17;;;;;;;;;6.75;5.00;;;;;21.24;62.50;101443.69;2344894;29;45558;-86
2022/08/05 02:20:37;;;;;;;;;3.50;3.50;;;;;21.20;62.56;101435.03;2346576;29;45486;-86
2022/08/05 02:21:53;;;;;;;;;6.50;3.00;;;;;21.17;62.70;101437.91;2380601;28;45849;-91
2022/08/05 02:23:08;;;;;;;;;3.50;3.50;;;;;21.16;62.74;101438.03;2392203;28;45306;-91
2022/08/05 02:24:26;;;;;;;;;3.00;3.00;;;;;21.14;62.83;101441.63;2393372;28;45430;-91
2022/08/05 02:25:40;;;;;;;;;5.50;5.00;;;;;21.16;63.40;101436.22;2379452;28;44615;-92
2022/08/05 02:26:55;;;;;;;;;3.75;3.75;;;;;21.19;63.77;101440.47;2377138;28;46307;-95
2022/08/05 02:28:08;;;;;;;;;5.00;4.00;;;;;21.22;64.01;101445.63;2378062;28;44648;-95
2022/08/05 02:29:21;;;;;;;;;4.00;3.25;;;;;21.24;64.09;101449.03;2377447;28;48039;-95
2022/08/05 02:30:47;;;;;;;;;4.00;4.00;;;;;21.25;63.99;101464.13;2377338;28;45241;-94
2022/08/05 02:31:59;;;;;;;;;4.25;2.25;;;;;21.25;63.77;101458.78;2381075;28;47208;-93
2022/08/05 02:33:13;;;;;;;;;5.75;2.00;;;;;21.25;63.75;101467.66;2390517;28;44668;-92
2022/08/05 02:34:28;;;;;;;;;5.75;5.00;;;;;21.29;63.54;101476.31;2385539;28;45457;-86
2022/08/05 02:35:41;;;;;;;;;6.75;4.50;;;;;21.31;64.16;101474.38;2388394;28;44601;-86
2022/08/05 02:36:57;;;;;;;;;4.50;3.50;;;;;21.32;63.88;101470.78;2383192;28;47352;-85
2022/08/05 02:38:09;;;;;;;;;7.00;4.50;;;;;21.32;64.25;101457.41;2386624;28;45151;-85
2022/08/05 02:39:21;;;;;;;;;5.25;4.00;;;;;21.32;63.80;101448.53;2393064;28;45429;-86
2022/08/05 02:40:32;;;;;;;;;4.00;3.00;;;;;21.33;63.14;101451.13;2382553;28;45270;-86
2022/08/05 02:41:45;;;;;;;;;5.50;3.00;;;;;21.32;63.02;101449.38;2385522;28;47464;-85
2022/08/05 02:42:57;;;;;;;;;3.50;3.50;;;;;21.28;63.51;101447.88;2383320;28;45252;-86
2022/08/05 02:44:09;;;;;;;;;3.00;3.00;;;;;21.26;63.26;101444.44;2386447;28;45524;-88
2022/08/05 02:45:22;;;;;;;;;2.25;2.25;;;;;21.23;63.59;101431.31;2386978;28;45437;-87
2022/08/05 02:46:35;;;;;;;;;4.75;3.75;;;;;21.17;63.27;101380.91;2383146;28;47279;-87
2022/08/05 02:47:47;;;;;;;;;5.25;3.25;;;;;21.13;63.30;101342.88;2374051;28;44751;-88
2022/08/05 02:48:58;;;;;;;;;6.50;4.00;;;;;21.09;63.51;101344.03;2376798;28;45346;-88
2022/08/05 02:50:12;;;;;;;;;5.75;5.00;;;;;21.07;63.55;101378.00;2383377;28;44642;-89
2022/08/05 02:51:24;;;;;;;;;1.00;1.00;;;;;21.08;63.72;101410.00;2376116;28;47359;-87
2022/08/05 02:52:35;;;;;;;;;6.25;4.50;;;;;21.09;64.08;101410.84;2386539;28;45549;-87
2022/08/05 02:53:47;;;;;;;;;4.25;4.25;;;;;21.11;64.17;101403.59;2393431;28;46160;-87
2022/08/05 02:55:02;;;;;;;;;6.00;5.00;;;;;21.12;63.82;101395.47;2383016;28;44637;-87
2022/08/05 02:56:14;;;;;;;;;4.00;4.00;;;;;21.13;63.77;101397.19;2386608;28;45417;-86
2022/08/05 02:57:24;;;;;;;;;4.50;3.75;;;;;21.14;63.91;101398.88;2393512;28;45424;-88
2022/08/05 02:58:37;;;;;;;;;3.75;3.75;;;;;21.13;63.81;101397.19;2393247;28;46444;-87
2022/08/05 02:59:49;;;;;;;;;3.25;3.25;;;;;21.15;63.08;101399.75;2382628;28;45224;-86
2022/08/05 03:01:01;;;;;;;;;7.00;4.25;;;;;21.13;63.00;101390.97;2385736;28;45497;-86
2022/08/05 03:02:14;;;;;;;;;5.75;5.50;;;;;21.13;63.43;101413.22;2393402;28;45307;-84
2022/08/05 03:03:27;;;;;;;;;3.75;3.75;;;;;21.16;63.86;101416.66;2392570;28;45421;-83
2022/08/05 03:04:38;;;;;;;;;10.75;4.50;;;;;21.16;63.27;101427.34;2391977;28;45236;-84
2022/08/05 03:05:51;;;;;;;;;4.00;4.00;;;;;21.19;62.93;101435.97;2392926;28;45388;-85
2022/08/05 03:07:02;;;;;;;;;5.25;4.25;;;;;21.20;63.47;101452.88;2392665;28;45209;-91
2022/08/05 03:08:14;;;;;;;;;5.50;4.00;;;;;21.18;63.19;101454.81;2383303;28;47275;-92
2022/08/05 03:09:24;;;;;;;;;6.25;5.00;;;;;21.18;63.79;101462.81;2376682;28;45387;-91
2022/08/05 03:10:35;;;;;;;;;3.50;3.50;;;;;21.18;63.55;101457.47;2385863;28;47008;-91
2022/08/05 03:11:45;;;;;;;;;7.00;4.50;;;;;21.19;63.69;101443.13;2392424;28;44751;-92
2022/08/05 03:12:55;;;;;;;;;5.25;4.25;;;;;21.20;63.21;101460.91;2382955;28;48273;-92
2022/08/05 03:14:06;;;;;;;;;6.50;4.00;;;;;21.19;63.60;101456.50;2377288;28;45180;-93
2022/08/05 03:15:16;;;;;;;;;7.00;4.50;;;;;21.18;63.56;101453.00;2390303;28;45439;-93
2022/08/05 03:16:26;;;;;;;;;4.50;4.50;;;;;21.16;63.19;101449.56;2383223;28;44647;-87
2022/08/05 03:17:37;;;;;;;;;6.25;4.00;;;;;21.16;63.45;101446.03;2385957;28;45256;-86
2022/08/05 03:18:47;;;;;;;;;6.25;4.00;;;;;21.16;63.42;101443.38;2392557;28;45462;-86
2022/08/05 03:19:58;;;;;;;;;4.75;3.75;;;;;21.11;63.63;101430.31;2392719;28;46341;-88
2022/08/05 03:21:09;;;;;;;;;4.00;4.00;;;;;21.09;62.86;101437.56;2381285;28;45232;-88
2022/08/05 03:22:20;;;;;;;;;6.00;4.00;;;;;21.07;63.40;101440.34;2376644;28;48087;-86
2022/08/05 03:23:32;;;;;;;;;4.50;3.25;;;;;21.04;63.12;101435.19;2386150;28;45219;-86
2022/08/05 03:24:44;;;;;;;;;5.00;5.00;;;;;21.06;63.38;101449.34;2390321;28;47055;-86
2022/08/05 03:25:55;;;;;;;;;4.00;4.00;;;;;21.06;63.66;101438.66;2383020;28;45255;-86
2022/08/05 03:27:06;;;;;;;;;4.00;3.50;;;;;21.06;63.43;101441.31;2383137;28;46489;-87
2022/08/05 03:28:17;;;;;;;;;6.25;3.50;;;;;21.03;62.67;101444.19;2387630;28;45269;-89
2022/08/05 03:29:27;;;;;;;;;3.75;3.25;;;;;21.00;62.72;101447.03;2392347;28;48449;-89
2022/08/05 03:30:38;;;;;;;;;4.25;4.00;;;;;20.95;62.90;101443.81;2388921;28;45262;-89
2022/08/05 03:31:49;;;;;;;;;4.00;4.00;;;;;20.94;63.65;101445.59;2373763;28;47612;-89
2022/08/05 03:33:04;;;;;;;;;5.00;4.25;;;;;20.95;63.42;101449.13;2376540;28;45304;-89
2022/08/05 03:34:14;;;;;;;;;6.50;3.75;;;;;20.96;63.62;101457.06;2386245;28;45571;-89
2022/08/05 03:35:26;;;;;;;;;4.75;4.75;;;;;20.97;62.96;101452.56;2392306;28;45156;-90
2022/08/05 03:36:37;;;;;;;;;4.00;4.00;;;;;20.96;63.20;101457.06;2385103;28;46273;-89
2022/08/05 03:37:47;;;;;;;;;5.50;4.00;;;;;20.97;63.46;101457.91;2383752;28;44602;-90
2022/08/05 03:39:04;;;;;;;;;5.00;5.00;;;;;20.95;63.26;101449.13;2374532;28;47087;-90
2022/08/05 03:40:15;;;;;;;;;5.00;4.75;;;;;20.94;63.02;101444.78;2386138;28;45346;-85
2022/08/05 03:41:25;;;;;;;;;5.25;5.00;;;;;20.91;64.01;101452.00;2387996;28;45684;-85
2022/08/05 03:42:35;;;;;;;;;2.25;2.25;;;;;20.91;62.89;101452.00;2393290;28;45244;-86
2022/08/05 03:43:46;;;;;;;;;4.00;4.00;;;;;20.95;63.25;101459.81;2382565;28;46193;-85
2022/08/05 03:44:56;;;;;;;;;4.00;4.00;;;;;20.94;63.49;101458.13;2382801;28;45306;-87
2022/08/05 03:46:06;;;;;;;;;4.00;3.00;;;;;20.92;62.93;101467.09;2384429;28;46327;-85
2022/08/05 03:47:17;;;;;;;;;5.00;5.00;;;;;20.94;63.53;101471.50;2383121;28;44640;-84
2022/08/05 03:48:28;;;;;;;;;4.25;3.25;;;;;20.94;63.11;101460.81;2378103;28;45250;-84
2022/08/05 03:49:38;;;;;;;;;5.00;4.00;;;;;20.93;63.46;101462.63;2383991;28;44740;-90
2022/08/05 03:51:23;;;;;;;;;5.50;3.00;;;;;20.94;63.29;101456.28;2388124;28;45243;-94
2022/08/05 03:52:40;;;;;;;;;5.00;5.00;;;;;20.92;63.50;101467.09;2374496;28;45456;-95
2022/08/05 03:54:08;;;;;;;;;2.00;2.00;;;;;20.92;63.09;101459.06;2377632;28;47067;-94
2022/08/05 03:55:28;;;;;;;;;4.25;4.25;;;;;20.92;62.80;101464.41;2373713;28;44776;-94
2022/08/05 03:56:41;;;;;;;;;4.00;4.00;;;;;20.94;63.26;101472.31;2392732;28;47113;-94
2022/08/05 03:57:54;;;;;;;;;5.25;4.25;;;;;20.96;62.64;101473.09;2383671;28;44748;-95
2022/08/05 03:59:08;;;;;;;;;3.75;3.75;;;;;20.97;62.90;101463.25;2368557;28;47600;-94
2022/08/05 04:00:25;;;;;;;;;5.00;4.00;;;;;21.00;63.23;101463.06;2368795;28;45205;-95
2022/08/05 04:01:41;;;;;;;;;5.00;4.00;;;;;21.01;63.74;101448.78;2374778;28;47215;-94
2022/08/05 04:02:55;;;;;;;;;5.00;5.00;;;;;21.00;63.17;101450.59;2385149;28;45207;-87
2022/08/05 04:04:06;;;;;;;;;5.50;4.25;;;;;21.02;62.66;101442.47;2387937;28;45561;-87
2022/08/05 04:05:18;;;;;;;;;4.50;4.00;;;;;20.98;62.21;101433.78;2393602;28;45493;-87
2022/08/05 04:06:32;;;;;;;;;5.25;3.00;;;;;20.95;62.40;101427.75;2384544;28;46020;-87
2022/08/05 04:07:43;;;;;;;;;5.00;3.25;;;;;20.92;62.42;101431.50;2387592;28;45466;-87
2022/08/05 04:08:53;;;;;;;;;5.00;5.00;;;;;20.90;62.51;101441.44;2394301;28;45425;-87
2022/08/05 04:10:05;;;;;;;;;5.00;4.25;;;;;20.87;63.08;101442.50;2394577;28;44736;-86
2022/08/05 04:11:16;;;;;;;;;4.25;4.25;;;;;20.87;62.25;101449.66;2386698;28;45550;-86
2022/08/05 04:12:27;;;;;;;;;6.00;4.50;;;;;20.84;62.98;101447.19;2385401;28;44838;-86
2022/08/05 04:13:41;;;;;;;;;5.75;4.50;;;;;20.87;63.56;101455.84;2384909;28;45571;-86
2022/08/05 04:14:52;;;;;;;;;3.50;3.00;;;;;20.87;63.48;101455.84;2385386;28;45362;-86
2022/08/05 04:16:03;;;;;;;;;6.00;3.75;;;;;20.88;62.90;101448.69;2391736;28;45603;-86
2022/08/05 04:17:14;;;;;;;;;5.00;4.00;;;;;20.87;62.98;101455.84;2394514;28;45310;-86
2022/08/05 04:18:25;;;;;;;;;5.00;4.50;;;;;20.86;62.67;101455.97;2394547;28;45406;-86
2022/08/05 04:19:46;;;;;;;;;5.75;5.00;;;;;20.83;62.98;101459.69;2384546;28;44554;-86
2022/08/05 04:20:57;;;;;;;;;4.00;4.00;;;;;20.85;63.14;101465.78;2377932;28;47559;-86
2022/08/05 04:22:07;;;;;;;;;5.25;5.00;;;;;20.79;62.68;101448.34;2387085;28;44708;-86
2022/08/05 04:23:18;;;;;;;;;3.50;3.00;;;;;20.79;62.41;101448.34;2382667;28;47225;-87
2022/08/05 04:24:28;;;;;;;;;3.00;3.00;;;;;20.82;62.55;101452.63;2387275;28;45311;-87
2022/08/05 04:25:39;;;;;;;;;5.25;4.75;;;;;20.81;63.07;101450.94;2393979;28;46279;-88
2022/08/05 04:26:49;;;;;;;;;4.25;3.00;;;;;20.82;63.68;101457.97;2394578;28;44546;-90
2022/08/05 04:28:00;;;;;;;;;3.25;3.25;;;;;20.80;63.55;101451.88;2394324;28;45369;-90
2022/08/05 04:29:10;;;;;;;;;3.50;2.75;;;;;20.79;63.28;101450.16;2384407;28;45261;-88
2022/08/05 04:30:20;;;;;;;;;3.75;3.75;;;;;20.79;63.81;101447.50;2377508;28;47176;-88
2022/08/05 04:31:31;;;;;;;;;5.00;4.75;;;;;20.79;63.52;101448.34;2386958;28;45272;-88
2022/08/05 04:32:41;;;;;;;;;3.75;3.75;;;;;20.78;62.74;101443.09;2382686;28;47879;-86
2022/08/05 04:33:51;;;;;;;;;3.00;3.00;;;;;20.78;63.33;101448.44;2385898;28;45254;-86
2022/08/05 04:35:02;;;;;;;;;5.25;4.75;;;;;20.76;63.50;101443.22;2393788;28;45353;-86
2022/08/05 04:36:14;;;;;;;;;5.00;4.50;;;;;20.76;63.48;101442.34;2394094;28;45143;-86
2022/08/05 04:37:24;;;;;;;;;5.00;5.00;;;;;20.77;62.96;101438.72;2394394;28;45808;-86
2022/08/05 04:38:35;;;;;;;;;5.50;5.00;;;;;20.74;62.81;101441.59;2384250;28;45232;-85
2022/08/05 04:39:46;;;;;;;;;5.75;4.00;;;;;20.73;62.56;101434.53;2386466;28;46891;-85
2022/08/05 04:40:56;;;;;;;;;5.50;5.50;;;;;20.72;62.48;101435.50;2391137;28;45263;-86
2022/08/05 04:42:07;;;;;;;;;7.50;5.25;;;;;20.69;63.35;101442.75;2385195;28;45362;-85
2022/08/05 04:43:17;;;;;;;;;4.75;4.75;;;;;20.68;63.26;101440.19;2387396;28;45439;-86
2022/08/05 04:44:27;;;;;;;;;4.00;4.00;;;;;20.68;63.72;101446.38;2394235;28;45227;-86
2022/08/05 04:45:38;;;;;;;;;4.00;4.00;;;;;20.67;62.96;101446.47;2384281;28;45302;-86
2022/08/05 04:46:48;;;;;;;;;5.75;5.00;;;;;20.66;63.26;101437.63;2386723;28;47141;-86
2022/08/05 04:48:09;;;;;;;;;7.50;5.00;;;;;20.68;63.74;101457.06;2393967;28;45354;-86
2022/08/05 04:49:19;;;;;;;;;6.00;5.25;;;;;20.65;63.31;101451.91;2393321;28;45547;-86
2022/08/05 04:50:30;;;;;;;;;6.00;4.50;;;;;20.64;63.37;101458.19;2394486;28;45208;-86
2022/08/05 04:51:44;;;;;;;;;5.75;3.75;;;;;20.64;63.17;101460.03;2386534;28;45507;-85
2022/08/05 04:52:54;;;;;;;;;5.00;4.00;;;;;20.63;63.78;101459.19;2384894;28;45389;-84
2022/08/05 04:54:04;;;;;;;;;5.25;4.00;;;;;20.63;63.53;101472.53;2389850;28;45002;-85
2022/08/05 04:55:15;;;;;;;;;4.00;4.00;;;;;20.62;63.55;101467.28;2384966;28;45423;-84
2022/08/05 04:56:25;;;;;;;;;6.00;5.00;;;;;20.63;63.18;101466.31;2384712;28;45319;-82
2022/08/05 04:57:36;;;;;;;;;5.25;4.00;;;;;20.61;63.03;101463.75;2384944;28;45215;-82
2022/08/05 04:58:46;;;;;;;;;5.75;4.00;;;;;20.61;63.49;101466.44;2384900;28;45268;-86
2022/08/05 04:59:57;;;;;;;;;5.25;5.25;;;;;20.61;63.68;101470.91;2382109;28;45426;-87
2022/08/05 05:01:07;;;;;;;;;6.50;5.25;;;;;20.59;63.22;101476.38;2386760;28;46574;-87
2022/08/05 05:02:17;;;;;;;;;6.75;4.00;;;;;20.57;63.26;101464.91;2384199;28;45204;-84
2022/08/05 05:03:28;;;;;;;;;4.25;4.25;;;;;20.57;63.41;101464.91;2385852;28;46694;-84
2022/08/05 05:04:38;;;;;;;;;3.25;3.25;;;;;20.55;63.22;101465.00;2394283;28;45260;-84
2022/08/05 05:05:48;;;;;;;;;5.00;5.00;;;;;20.57;63.69;101462.22;2383289;28;47127;-84
2022/08/05 05:06:59;;;;;;;;;6.00;5.00;;;;;20.56;63.01;101464.06;2386303;28;44637;-84
2022/08/05 05:08:09;;;;;;;;;2.25;2.25;;;;;20.53;63.70;101474.94;2393595;28;45513;-84
2022/08/05 05:09:20;;;;;;;;;6.75;4.50;;;;;20.54;63.25;101478.47;2394095;28;45151;-84
2022/08/05 05:10:36;;;;;;;;;4.25;4.25;;;;;20.53;63.42;101480.28;2393952;28;45506;-87
2022/08/05 05:11:46;;;;;;;;;4.50;4.50;;;;;20.51;63.08;101479.53;2375239;28;45204;-85
2022/08/05 05:12:57;;;;;;;;;5.00;5.00;;;;;20.52;63.18;101483.06;2381714;28;48495;-85
2022/08/05 05:14:07;;;;;;;;;5.75;4.25;;;;;20.52;63.26;101485.72;2394420;28;45250;-94
2022/08/05 05:15:17;;;;;;;;;5.25;4.25;;;;;20.53;63.59;101487.41;2384370;28;47789;-93
2022/08/05 05:16:28;;;;;;;;;5.25;5.25;;;;;20.54;64.35;101491.81;2386621;28;44728;-92
2022/08/05 05:17:40;;;;;;;;;6.00;6.00;;;;;20.54;63.38;101491.81;2393746;28;47154;-93
2022/08/05 05:18:51;;;;;;;;;4.00;4.00;;;;;20.54;63.25;101486.47;2381336;28;45182;-88
2022/08/05 05:20:01;;;;;;;;;6.50;5.00;;;;;20.55;63.08;101488.16;2375090;28;46459;-82
2022/08/05 05:21:11;;;;;;;;;5.50;5.00;;;;;20.54;63.21;101486.47;2385053;28;45407;-82
2022/08/05 05:22:22;;;;;;;;;4.25;4.25;;;;;20.53;63.15;101484.75;2390109;28;45324;-83
2022/08/05 05:23:32;;;;;;;;;5.50;5.50;;;;;20.52;63.79;101488.38;2392760;28;45307;-82
2022/08/05 05:24:43;;;;;;;;;7.25;6.25;;;;;20.53;63.59;101503.44;2381793;28;46527;-81
2022/08/05 05:25:53;;;;;;;;;5.75;5.00;;;;;20.53;63.32;101492.75;2374600;28;45371;-83
2022/08/05 05:27:04;;;;;;;;;3.50;3.00;;;;;20.52;62.83;101496.41;2386775;28;45339;-85
2022/08/05 05:28:14;;;;;;;;;4.50;3.50;;;;;20.54;63.59;101505.16;2385948;28;45401;-86
2022/08/05 05:29:24;;;;;;;;;5.25;4.00;;;;;20.53;63.75;101504.31;2388165;28;45585;-87
2022/08/05 05:30:35;;;;;;;;;6.00;5.00;;;;;20.54;63.17;101506.03;2389521;28;44762;-85
2022/08/05 05:31:45;;;;;;;;;2.00;2.00;;;;;20.52;63.19;101505.25;2389299;28;45486;-84
2022/08/05 05:32:56;;;;;;;;;6.00;6.00;;;;;20.54;63.07;101507.84;2384864;28;45201;-83
2022/08/05 05:34:07;;;;;;;;;5.00;5.00;;;;;20.52;63.21;101512.41;2384457;28;46277;-83
2022/08/05 05:35:17;;;;;;;;;8.50;5.50;;;;;20.53;63.12;101506.09;2384923;28;45204;-82
2022/08/05 05:36:28;;;;;;;;;6.75;5.00;;;;;20.54;63.06;101508.69;2374031;28;47690;-82
2022/08/05 05:37:55;;;;;;;;;4.00;3.75;;;;;20.57;63.96;101513.81;2368030;28;45320;-83
2022/08/05 05:39:05;;;;;;;;;5.50;4.00;;;;;20.57;63.50;101508.47;2369360;28;48352;-82